createdAt,value
2019-03-12T00:02:25.822Z,5.55
2019-03-12T00:04:56.148Z,5.49
2019-03-12T00:07:29.400Z,5.59
2019-03-12T00:10:02.698Z,5.61
2019-03-12T00:12:33.285Z,5.76
2019-03-12T00:15:04.732Z,5.59
2019-03-12T00:17:34.916Z,5.69
2019-03-12T00:20:09.171Z,5.68
2019-03-12T00:22:39.561Z,5.62
2019-03-12T00:25:10.637Z,5.70
2019-03-12T00:27:42.207Z,5.72
2019-03-12T00:30:13.963Z,5.57
2019-03-12T00:32:46.817Z,5.58
2019-03-12T00:35:18.508Z,5.67
2019-03-12T00:37:49.877Z,5.44
2019-03-12T00:40:21.126Z,5.40
2019-03-12T00:42:53.321Z,5.27
2019-03-12T00:45:24.795Z,5.66
2019-03-12T00:47:55.908Z,5.40
2019-03-12T00:50:27.235Z,5.44
2019-03-12T00:52:58.682Z,5.39
2019-03-12T00:55:31.267Z,5.21
2019-03-12T00:58:01.895Z,5.24
2019-03-12T01:00:33.427Z,5.26
2019-03-12T01:03:04.968Z,5.20
2019-03-12T01:05:38.049Z,5.34
2019-03-12T01:08:09.491Z,5.19
2019-03-12T01:10:41.088Z,5.32
2019-03-12T01:13:15.244Z,5.18
2019-03-12T01:15:48.660Z,5.04
2019-03-12T01:18:20.042Z,4.88
2019-03-12T01:20:51.281Z,5.00
2019-03-12T01:23:22.900Z,4.95
2019-03-12T01:25:56.441Z,4.96
2019-03-12T01:28:27.591Z,4.97
2019-03-12T01:30:58.731Z,5.27
2019-03-12T01:33:29.137Z,5.23
2019-03-12T01:36:00.511Z,5.36
2019-03-12T01:38:34.089Z,5.06
2019-03-12T01:41:04.832Z,4.95
2019-03-12T01:43:35.728Z,4.74
2019-03-12T01:46:06.232Z,4.98
2019-03-12T01:48:37.989Z,4.84
2019-03-12T01:51:11.776Z,4.84
2019-03-12T01:53:43.298Z,4.92
2019-03-12T01:56:14.921Z,4.97
2019-03-12T01:58:45.338Z,5.19
2019-03-12T02:01:18.748Z,5.10
2019-03-12T02:03:49.437Z,4.93
2019-03-12T02:06:20.836Z,4.80
2019-03-12T02:08:51.772Z,4.70
2019-03-12T02:11:26.279Z,4.87
2019-03-12T02:13:59.281Z,4.85
2019-03-12T02:16:30.663Z,4.63
2019-03-12T02:19:02.285Z,4.91
2019-03-12T02:21:35.027Z,4.75
2019-03-12T02:24:07.515Z,4.36
2019-03-12T02:26:39.055Z,4.72
2019-03-12T02:29:10.453Z,4.76
2019-03-12T02:31:41.667Z,4.80
2019-03-12T02:34:15.187Z,4.57
2019-03-12T02:36:46.431Z,4.61
2019-03-12T02:39:16.750Z,4.54
2019-03-12T02:41:47.449Z,4.21
2019-03-12T02:44:17.809Z,4.73
2019-03-12T02:46:49.888Z,4.54
2019-03-12T02:49:21.060Z,4.61
2019-03-12T02:51:52.506Z,4.31
2019-03-12T02:54:23.712Z,4.34
2019-03-12T02:56:56.906Z,4.21
2019-03-12T02:59:30.909Z,4.21
2019-03-12T03:02:01.664Z,4.19
2019-03-12T03:04:33.009Z,4.43
2019-03-12T03:07:06.239Z,4.52
2019-03-12T03:09:37.610Z,4.28
2019-03-12T03:12:09.158Z,4.53
2019-03-12T03:14:40.628Z,4.37
2019-03-12T03:17:14.589Z,4.53
2019-03-12T03:19:46.950Z,4.41
2019-03-12T03:22:17.770Z,3.73
2019-03-12T03:24:49.450Z,3.95
2019-03-12T03:27:21.941Z,3.88
2019-03-12T03:29:55.529Z,3.90
2019-03-12T03:32:27.174Z,3.51
2019-03-12T03:34:57.895Z,3.89
2019-03-12T03:37:28.593Z,4.00
2019-03-12T03:40:01.562Z,4.41
2019-03-12T03:42:31.999Z,4.30
2019-03-12T03:45:03.150Z,4.08
2019-03-12T03:47:35.802Z,3.95
2019-03-12T03:50:10.669Z,3.68
2019-03-12T03:52:42.023Z,3.58
2019-03-12T03:55:14.639Z,3.69
2019-03-12T03:57:46.319Z,3.40
2019-03-12T04:00:21.254Z,3.32
2019-03-12T04:02:52.904Z,3.11
2019-03-12T04:05:23.499Z,3.21
2019-03-12T04:07:54.914Z,3.71
2019-03-12T04:10:27.191Z,3.54
2019-03-12T04:12:57.990Z,4.11
2019-03-12T04:15:28.273Z,3.78
2019-03-12T04:17:59.552Z,3.60
2019-03-12T04:20:30.925Z,3.08
2019-03-12T04:23:03.915Z,2.83
2019-03-12T04:25:36.212Z,3.26
2019-03-12T04:28:07.676Z,2.85
2019-03-12T04:30:38.409Z,3.15
2019-03-12T04:33:14.035Z,3.29
2019-03-12T04:35:44.863Z,3.37
2019-03-12T04:38:15.606Z,3.54
2019-03-12T04:40:47.182Z,3.72
2019-03-12T04:43:17.963Z,3.11
2019-03-12T04:45:51.683Z,3.25
2019-03-12T04:48:23.094Z,2.84
2019-03-12T04:50:53.752Z,3.21
2019-03-12T04:53:25.203Z,3.30
2019-03-12T04:55:58.923Z,3.16
2019-03-12T04:58:29.591Z,3.00
2019-03-12T05:01:00.654Z,3.20
2019-03-12T05:03:31.029Z,3.08
2019-03-12T05:06:02.051Z,2.76
2019-03-12T05:08:35.402Z,3.09
2019-03-12T05:11:06.855Z,3.16
2019-03-12T05:13:37.414Z,2.70
2019-03-12T05:16:08.491Z,2.83
2019-03-12T05:18:39.483Z,2.60
2019-03-12T05:21:13.232Z,2.92
2019-03-12T05:23:43.731Z,2.97
2019-03-12T05:26:14.757Z,3.16
2019-03-12T05:28:45.644Z,3.10
2019-03-12T05:31:16.134Z,3.09
2019-03-12T05:33:50.018Z,2.97
2019-03-12T05:36:21.503Z,2.77
2019-03-12T05:38:52.864Z,2.94
2019-03-12T05:41:24.431Z,3.07
2019-03-12T05:43:57.936Z,3.23
2019-03-12T05:46:28.840Z,2.98
2019-03-12T05:49:00.122Z,2.81
2019-03-12T05:51:30.679Z,2.89
2019-03-12T05:54:01.211Z,3.08
2019-03-12T05:56:33.414Z,3.12
2019-03-12T05:59:04.966Z,3.17
2019-03-12T06:01:36.397Z,3.06
2019-03-12T06:04:10.321Z,2.88
2019-03-12T06:06:42.464Z,2.69
2019-03-12T06:09:29.441Z,3.24
2019-03-12T06:11:50.572Z,3.06
2019-03-12T06:14:24.247Z,2.62
2019-03-12T06:16:56.064Z,2.86
2019-03-12T06:19:26.546Z,3.24
2019-03-12T06:21:58.229Z,3.26
2019-03-12T06:24:28.686Z,3.19
2019-03-12T06:27:14.342Z,3.06
2019-03-12T06:29:47.447Z,3.11
2019-03-12T06:32:19.908Z,3.09
2019-03-12T06:34:53.129Z,2.90
2019-03-12T06:37:29.541Z,2.55
2019-03-12T06:40:05.163Z,3.08
2019-03-12T06:42:44.549Z,3.20
2019-03-12T06:45:17.264Z,3.08
2019-03-12T06:47:50.415Z,3.22
2019-03-12T06:50:33.612Z,3.06
2019-03-12T06:53:17.037Z,3.01
2019-03-12T06:55:56.108Z,3.10
2019-03-12T06:58:32.108Z,3.25
2019-03-12T07:01:16.541Z,3.27
2019-03-12T07:04:05.127Z,3.53
2019-03-12T07:06:54.590Z,3.77
2019-03-12T07:09:42.438Z,3.61
2019-03-12T07:12:30.887Z,3.74
2019-03-12T07:15:03.950Z,3.70
2019-03-12T07:17:48.312Z,3.61
2019-03-12T07:20:21.000Z,3.92
2019-03-12T07:23:08.385Z,3.99
2019-03-12T07:25:50.526Z,4.10
2019-03-12T07:28:20.955Z,4.31
2019-03-12T07:30:56.502Z,4.33
2019-03-12T07:33:30.185Z,4.80
2019-03-12T07:36:03.935Z,4.44
2019-03-12T07:38:52.536Z,4.67
2019-03-12T07:41:31.925Z,4.74
2019-03-12T07:44:08.356Z,4.79
2019-03-12T07:47:08.275Z,5.06
2019-03-12T07:49:52.304Z,5.35
2019-03-12T07:52:39.604Z,5.16
2019-03-12T07:55:29.888Z,5.27
2019-03-12T07:58:07.555Z,5.53
2019-03-12T08:00:42.700Z,5.50
2019-03-12T08:03:15.556Z,5.79
2019-03-12T08:06:05.524Z,6.18
2019-03-12T08:08:42.904Z,6.37
2019-03-12T08:11:19.309Z,6.86
2019-03-12T08:13:50.954Z,6.60
2019-03-12T08:16:39.062Z,6.85
2019-03-12T08:19:11.487Z,6.69
2019-03-12T08:21:49.679Z,6.23
2019-03-12T08:24:38.518Z,7.24
2019-03-12T08:27:26.137Z,7.63
2019-03-12T08:29:57.766Z,7.59
2019-03-12T08:32:42.154Z,8.64
2019-03-12T08:35:20.176Z,8.68
2019-03-12T08:37:58.153Z,8.95
2019-03-12T08:40:33.695Z,9.18
2019-03-12T08:43:15.046Z,9.87
2019-03-12T08:45:48.865Z,10.39
2019-03-12T08:48:33.063Z,11.22
2019-03-12T08:51:05.563Z,12.38
2019-03-12T08:53:43.126Z,16.53
2019-03-12T08:56:27.746Z,16.16
2019-03-12T08:59:00.538Z,14.81
2019-03-12T09:01:47.389Z,17.18
2019-03-12T09:04:35.490Z,16.74
2019-03-12T09:07:07.601Z,15.76
2019-03-12T09:09:40.482Z,14.34
2019-03-12T09:12:15.683Z,14.44
2019-03-12T09:14:48.906Z,13.94
2019-03-12T09:17:29.275Z,15.00
2019-03-12T09:20:10.277Z,11.99
2019-03-12T09:22:43.200Z,10.74
2019-03-12T09:25:17.015Z,11.22
2019-03-12T09:28:17.305Z,11.86
2019-03-12T09:30:49.799Z,14.18
2019-03-12T09:33:28.217Z,15.38
2019-03-12T09:36:02.128Z,13.78
2019-03-12T09:38:35.288Z,14.14
2019-03-12T09:41:08.045Z,17.09
2019-03-12T09:43:42.390Z,16.56
2019-03-12T09:46:18.380Z,15.25
2019-03-12T09:49:06.117Z,13.29
2019-03-12T09:51:44.339Z,14.23
2019-03-12T09:54:23.623Z,10.38
2019-03-12T09:57:07.962Z,12.31
2019-03-12T09:59:49.699Z,12.33
2019-03-12T10:02:31.287Z,12.41
2019-03-12T10:05:12.099Z,11.86
2019-03-12T10:07:53.785Z,12.41
2019-03-12T10:10:30.728Z,10.76
2019-03-12T10:13:07.824Z,10.91
2019-03-12T10:15:49.704Z,10.72
2019-03-12T10:18:26.045Z,12.11
2019-03-12T10:21:09.718Z,10.55
2019-03-12T10:23:57.939Z,11.35
2019-03-12T10:26:34.162Z,16.31
2019-03-12T10:29:22.588Z,12.98
2019-03-12T10:32:01.765Z,13.29
2019-03-12T10:34:43.657Z,12.03
2019-03-12T10:37:27.606Z,11.84
2019-03-12T10:40:23.609Z,12.33
2019-03-12T10:43:05.328Z,13.78
2019-03-12T10:45:38.959Z,16.06
2019-03-12T10:48:11.837Z,20.79
2019-03-12T10:50:42.777Z,24.71
2019-03-12T10:53:14.305Z,14.64
2019-03-12T10:55:47.156Z,13.87
2019-03-12T10:58:18.064Z,12.92
2019-03-12T11:00:49.697Z,11.51
2019-03-12T11:03:20.525Z,11.49
2019-03-12T11:05:55.339Z,11.75
2019-03-12T11:08:27.798Z,10.94
2019-03-12T11:10:59.177Z,12.88
2019-03-12T11:13:30.753Z,12.58
2019-03-12T11:16:01.546Z,12.71
2019-03-12T11:18:34.939Z,12.22
2019-03-12T11:21:05.582Z,11.26
2019-03-12T11:23:37.222Z,11.28
2019-03-12T11:26:08.072Z,11.74
2019-03-12T11:28:41.666Z,13.10
2019-03-12T11:31:12.697Z,14.56
2019-03-12T11:33:43.776Z,15.30
2019-03-12T11:36:14.309Z,12.39
2019-03-12T11:38:45.744Z,11.66
2019-03-12T11:41:19.153Z,10.74
2019-03-12T11:43:50.489Z,10.49
2019-03-12T11:46:22.115Z,10.13
2019-03-12T11:48:53.789Z,9.76
2019-03-12T11:51:26.564Z,9.55
2019-03-12T11:53:57.157Z,9.21
2019-03-12T11:56:28.708Z,9.26
2019-03-12T11:58:59.398Z,9.22
2019-03-12T12:01:30.475Z,9.09
2019-03-12T12:04:07.802Z,9.08
2019-03-12T12:06:42.522Z,9.55
2019-03-12T12:09:12.542Z,9.25
2019-03-12T12:11:45.973Z,9.09
2019-03-12T12:14:19.651Z,9.28
2019-03-12T12:16:50.855Z,9.46
2019-03-12T12:19:26.861Z,9.37
2019-03-12T12:21:57.705Z,9.37
2019-03-12T12:24:29.162Z,9.34
2019-03-12T12:27:01.817Z,9.41
2019-03-12T12:29:36.398Z,9.62
2019-03-12T12:32:07.703Z,9.60
2019-03-12T12:34:39.245Z,9.57
2019-03-12T12:37:13.691Z,9.52
2019-03-12T12:39:45.219Z,9.38
2019-03-12T12:42:16.075Z,9.44
2019-03-12T12:44:47.306Z,9.93
2019-03-12T12:47:18.138Z,9.75
2019-03-12T12:49:49.045Z,9.67
2019-03-12T12:52:23.164Z,10.15
2019-03-12T12:54:54.191Z,9.82
2019-03-12T12:57:26.086Z,9.88
2019-03-12T12:59:57.823Z,9.89
2019-03-12T13:02:31.601Z,10.05
2019-03-12T13:05:02.703Z,10.30
2019-03-12T13:07:33.137Z,10.31
2019-03-12T13:10:03.856Z,10.35
2019-03-12T13:12:38.304Z,10.10
2019-03-12T13:15:12.274Z,11.07
2019-03-12T13:17:45.037Z,11.25
2019-03-12T13:20:15.523Z,10.93
2019-03-12T13:22:49.226Z,10.99
2019-03-12T13:25:19.562Z,11.45
2019-03-12T13:27:51.178Z,11.52
2019-03-12T13:30:25.493Z,11.67
2019-03-12T13:32:58.988Z,11.44
2019-03-12T13:35:29.430Z,11.13
2019-03-12T13:38:00.935Z,11.57
2019-03-12T13:40:32.489Z,10.69
2019-03-12T13:43:06.015Z,10.76
2019-03-12T13:45:36.704Z,10.62
2019-03-12T13:48:08.590Z,10.37
2019-03-12T13:50:40.078Z,10.38
2019-03-12T13:53:15.947Z,10.68
2019-03-12T13:55:47.365Z,10.53
2019-03-12T13:58:18.452Z,10.31
2019-03-12T14:00:50.059Z,10.14
2019-03-12T14:03:23.081Z,10.06
2019-03-12T14:05:54.833Z,10.06
2019-03-12T14:08:25.362Z,10.06
2019-03-12T14:10:56.170Z,10.11
2019-03-12T14:13:27.702Z,9.97
2019-03-12T14:16:01.636Z,10.27
2019-03-12T14:18:34.022Z,10.08
2019-03-12T14:21:09.183Z,10.03
2019-03-12T14:23:48.737Z,9.87
2019-03-12T14:26:20.212Z,9.78
2019-03-12T14:28:52.711Z,9.78
2019-03-12T14:31:26.109Z,9.49
2019-03-12T14:33:58.029Z,9.56
2019-03-12T14:36:29.608Z,9.63
2019-03-12T14:39:02.531Z,9.56
2019-03-12T14:41:35.554Z,9.58
2019-03-12T14:44:06.334Z,9.68
2019-03-12T14:46:37.842Z,9.69
2019-03-12T14:49:09.584Z,9.76
2019-03-12T14:51:44.495Z,9.81
2019-03-12T14:54:15.357Z,9.67
2019-03-12T14:56:47.826Z,9.68
2019-03-12T14:59:18.462Z,9.69
2019-03-12T15:01:52.783Z,9.73
2019-03-12T15:04:25.190Z,9.79
2019-03-12T15:06:55.798Z,9.77
2019-03-12T15:09:27.850Z,9.78
2019-03-12T15:12:01.816Z,9.85
2019-03-12T15:14:33.575Z,9.78
2019-03-12T15:17:04.436Z,9.81
2019-03-12T15:19:41.493Z,9.94
2019-03-12T15:22:12.658Z,9.68
2019-03-12T15:24:43.477Z,9.69
2019-03-12T15:27:14.389Z,9.73
2019-03-12T15:29:46.301Z,9.79
2019-03-12T15:32:19.350Z,9.78
2019-03-12T15:34:50.198Z,9.85
2019-03-12T15:37:22.152Z,9.68
2019-03-12T15:39:53.586Z,9.66
2019-03-12T15:42:28.076Z,9.64
2019-03-12T15:44:58.798Z,9.60
2019-03-12T15:47:30.420Z,9.64
2019-03-12T15:50:01.347Z,9.67
2019-03-12T15:52:33.347Z,9.61
2019-03-12T15:55:06.900Z,9.67
2019-03-12T15:57:38.355Z,9.66
2019-03-12T16:00:19.329Z,9.65
2019-03-12T16:02:50.117Z,9.62
2019-03-12T16:05:20.923Z,9.58
2019-03-12T16:07:52.080Z,9.54
2019-03-12T16:10:22.937Z,9.53
2019-03-12T16:12:57.203Z,9.54
2019-03-12T16:15:28.947Z,9.54
2019-03-12T16:18:00.406Z,9.60
2019-03-12T16:20:35.338Z,9.61
2019-03-12T16:23:06.953Z,9.61
2019-03-12T16:25:38.825Z,9.60
2019-03-12T16:28:10.302Z,9.61
2019-03-12T16:30:40.950Z,9.58
2019-03-12T16:33:13.890Z,9.58
2019-03-12T16:35:45.669Z,9.58
2019-03-12T16:38:16.560Z,9.56
2019-03-12T16:40:47.288Z,9.56
2019-03-12T16:43:18.075Z,9.54
2019-03-12T16:45:52.006Z,9.55
2019-03-12T16:51:12.716Z,9.50
2019-03-12T16:53:44.187Z,9.43
2019-03-12T16:56:18.256Z,9.40
2019-03-12T16:58:51.298Z,9.38
2019-03-12T17:01:24.590Z,9.36
2019-03-12T17:04:00.314Z,9.32
2019-03-12T17:06:31.012Z,9.31
2019-03-12T17:09:01.546Z,9.32
2019-03-12T17:11:32.310Z,9.29
2019-03-12T17:14:05.475Z,9.32
2019-03-12T17:16:36.846Z,9.30
2019-03-12T17:19:09.360Z,9.33
2019-03-12T17:21:40.066Z,9.32
2019-03-12T17:24:11.916Z,9.34
2019-03-12T17:26:45.466Z,9.33
2019-03-12T17:29:16.606Z,9.35
2019-03-12T17:31:47.870Z,9.31
2019-03-12T17:34:18.542Z,9.35
2019-03-12T17:36:50.358Z,9.31
2019-03-12T17:39:24.114Z,9.33
2019-03-12T17:41:56.263Z,9.33
2019-03-12T17:44:27.299Z,9.34
2019-03-12T17:46:59.175Z,9.40
2019-03-12T17:49:35.195Z,9.32
2019-03-12T17:52:06.558Z,9.33
2019-03-12T17:54:39.552Z,9.36
2019-03-12T17:57:13.829Z,9.38
2019-03-12T17:59:48.816Z,9.39
2019-03-12T18:02:19.461Z,9.39
2019-03-12T18:04:56.331Z,9.39
2019-03-12T18:07:38.501Z,9.38
2019-03-12T18:10:14.828Z,9.41
2019-03-12T18:12:45.456Z,9.43
2019-03-12T18:15:23.571Z,9.42
2019-03-12T18:17:55.497Z,9.40
2019-03-12T18:20:27.468Z,9.40
2019-03-12T18:22:59.525Z,9.40
2019-03-12T18:25:39.546Z,9.39
2019-03-12T18:28:11.346Z,9.39
2019-03-12T18:30:42.797Z,9.42
2019-03-12T18:33:16.885Z,9.40
2019-03-12T18:35:47.981Z,9.42
2019-03-12T18:38:19.782Z,9.43
2019-03-12T18:40:50.500Z,9.40
2019-03-12T18:43:24.388Z,9.38
2019-03-12T18:45:56.394Z,9.37
2019-03-12T18:48:26.989Z,9.39
2019-03-12T18:50:57.524Z,9.37
2019-03-12T18:53:28.925Z,9.39
2019-03-12T18:56:02.282Z,9.38
2019-03-12T18:58:34.280Z,9.37
2019-03-12T19:01:05.918Z,9.34
2019-03-12T19:03:36.520Z,9.36
2019-03-12T19:06:10.158Z,9.37
2019-03-12T19:08:48.077Z,9.41
2019-03-12T19:11:25.620Z,9.44
2019-03-12T19:13:57.671Z,9.43
2019-03-12T19:16:29.895Z,9.44
2019-03-12T19:19:01.193Z,9.43
2019-03-12T19:21:34.577Z,9.46
2019-03-12T19:24:18.233Z,9.48
2019-03-12T19:26:51.601Z,9.46
2019-03-12T19:29:23.460Z,9.46
2019-03-12T19:32:03.431Z,9.46
2019-03-12T19:34:34.597Z,9.46
2019-03-12T19:37:06.400Z,9.45
2019-03-12T19:39:37.857Z,9.48
2019-03-12T19:42:08.424Z,9.47
2019-03-12T19:44:41.398Z,9.47
2019-03-12T19:47:12.767Z,9.46
2019-03-12T19:49:45.114Z,9.50
2019-03-12T19:52:16.124Z,9.49
2019-03-12T19:54:49.335Z,9.50
2019-03-12T19:57:20.503Z,9.54
2019-03-12T19:59:51.411Z,9.51
2019-03-12T20:02:22.751Z,9.58
2019-03-12T20:04:53.219Z,9.60
2019-03-12T20:07:26.735Z,9.62
2019-03-12T20:10:00.847Z,9.67
2019-03-12T20:12:35.307Z,9.62
2019-03-12T20:15:28.633Z,9.66
2019-03-12T20:18:22.786Z,9.65
2019-03-12T20:21:19.043Z,9.72
2019-03-12T20:24:20.125Z,9.69
2019-03-12T20:27:18.012Z,9.62
2019-03-12T20:30:19.772Z,9.60
2019-03-12T20:33:00.614Z,9.52
2019-03-12T20:36:07.650Z,9.49
2019-03-12T20:39:03.625Z,9.46
2019-03-12T20:41:59.929Z,9.43
2019-03-12T20:44:58.218Z,9.42
2019-03-12T20:47:40.811Z,9.35
2019-03-12T20:50:39.837Z,9.32
2019-03-12T20:53:26.006Z,9.32
2019-03-12T20:56:08.224Z,9.25
2019-03-12T20:58:57.160Z,9.27
2019-03-12T21:02:03.087Z,9.26
2019-03-12T21:04:51.637Z,9.21
2019-03-12T21:07:46.959Z,9.18
2019-03-12T21:10:48.582Z,9.15
2019-03-12T21:13:28.728Z,9.19
2019-03-12T21:16:27.564Z,9.27
2019-03-12T21:19:32.864Z,9.33
2019-03-12T21:22:11.449Z,9.38
2019-03-12T21:24:57.202Z,9.39
2019-03-12T21:27:42.466Z,9.31
2019-03-12T21:30:12.432Z,9.38
2019-03-12T21:32:43.515Z,9.43
2019-03-12T21:35:16.500Z,9.38
2019-03-12T21:37:46.929Z,9.36
2019-03-12T21:40:18.560Z,9.29
2019-03-12T21:42:50.217Z,9.28
2019-03-12T21:45:24.559Z,9.31
2019-03-12T21:48:01.030Z,9.26
2019-03-12T21:50:31.841Z,9.27
2019-03-12T21:53:02.787Z,9.25
2019-03-12T21:55:37.811Z,9.31
2019-03-12T21:58:09.385Z,9.29
2019-03-12T22:00:41.607Z,9.28
2019-03-12T22:03:16.561Z,9.28
2019-03-12T22:05:48.025Z,9.36
2019-03-12T22:08:19.202Z,9.52
2019-03-12T22:10:50.771Z,9.47
2019-03-12T22:13:24.711Z,9.33
2019-03-12T22:15:56.435Z,9.36
2019-03-12T22:18:29.854Z,9.37
2019-03-12T22:21:00.898Z,9.34
2019-03-12T22:23:36.251Z,9.47
2019-03-12T22:26:07.931Z,9.61
2019-03-12T22:28:39.368Z,9.80
2019-03-12T22:31:11.121Z,9.97
2019-03-12T22:33:45.393Z,10.03
2019-03-12T22:36:17.297Z,10.07
2019-03-12T22:38:47.787Z,10.22
2019-03-12T22:41:18.492Z,10.21
2019-03-12T22:43:51.069Z,10.33
2019-03-12T22:46:22.929Z,10.41
2019-03-12T22:48:54.939Z,10.42
2019-03-12T22:51:25.457Z,10.42
2019-03-12T22:53:59.424Z,10.41
2019-03-12T22:56:31.964Z,10.43
2019-03-12T22:59:03.102Z,10.47
2019-03-12T23:01:34.071Z,10.50
2019-03-12T23:04:04.839Z,10.52
2019-03-12T23:06:38.026Z,10.48
2019-03-12T23:09:09.708Z,10.40
2019-03-12T23:11:41.331Z,10.33
2019-03-12T23:14:12.549Z,10.26
2019-03-12T23:16:47.181Z,10.18
2019-03-12T23:19:17.817Z,10.04
2019-03-12T23:21:49.115Z,9.97
2019-03-12T23:24:20.151Z,9.84
2019-03-12T23:26:56.362Z,9.88
2019-03-12T23:29:27.305Z,9.73
2019-03-12T23:31:57.699Z,9.79
2019-03-12T23:34:29.062Z,9.84
2019-03-12T23:37:10.461Z,9.97
2019-03-12T23:39:42.421Z,9.65
2019-03-12T23:42:14.708Z,9.50
2019-03-12T23:44:49.514Z,9.11
2019-03-12T23:47:21.566Z,9.25
2019-03-12T23:49:53.027Z,9.19
2019-03-12T23:52:23.452Z,8.98
2019-03-12T23:54:57.484Z,8.93
2019-03-12T23:57:29.496Z,9.02
